METAR Data
IDs: Format: Raw Decoded Include TAF

Data at: 0435 UTC 18 Jan 2022

EGDY 180350Z AUTO 09002KT 0350 +UP BKN200/// M03/M04 Q1037